Accueil
METAR-TAF:

METAR-TAF

Aéroports :

Aéroport d'Olbia

Olbia, Italie

latitude: 40-54N, longitude: 009-31E, altitude: 11 m

Observation

Le bulletin a été fait il y a 28 minutes, à 18:50 UTC
Vent 12 kt de nord/nord-est
Température 12°C
Humidité 82%
Pression 1017 hPa
Visibilité 10 km ou plus
Nuages épars à une hauteur de 3000 ft

METAR: LIEO 311850Z 03012KT 9999 SCT030 12/09 Q1017

Heure: 21:18 (19:18 UTC)

Prévision

Le bulletin a été fait il y a 8 heures et 18 minutes, à 11:00 UTC
Prévision valable du 31 à 12 UTC au 01 à 12 UTC
Vent 6 kt de direction variable
Visibilité 10 km ou plus
Nuages épars à une hauteur de 3000 ft
Temporairement
du 31 à 12 UTC au 31 à 15 UTC
pluie

TAF: LIEO 311100Z 3112/0112 VRB06KT 9999 SCT030 TEMPO 3112/3115 RA

Observations et prévisions météorologiques de plus de 4000 aéroports (messages METAR et TAF).

Les stations disponibles sont représentées par des disques jaunes et rouges sur la carte.

Passer la souris dessus pour voir le nom de la station.

Cliquer dessus pour voir les observations et prévisions météorologiques.

Pour changer de carte: cliquez sur les boutons verts avec une croix noire pour zoomer, sur le bouton vert avec un tiret pour effectuer un zoom arrière, ou sur les flèches vertes pour les cartes adjacentes.


METAR-TAF: